Star Epsilon — V7NZ7 — position and weather

sailwx.info

Track history (hours):
 
Tides and Currents Weather Stations Pressure Air Temp Water Temp Dewpoint Dewpoint Depression Visibility Wind Speed Wind Dir Waves Ship Positions

Star Epsilon

Last reported at 2017-Aug-24 10:30 UTC. Time now 2017-Aug-24 10:35 UTC.
Position N 36°37' E 013°57'.

Length 189 m; draft 10.8 m.

Type: Ship. MMSI: 538003043.

Date/timePositionNaut miles runAvg speedWind from/ knotsBaromVisibWave heightAir tempDewpointWater temp
2017-Aug-24 10:30N 36°37' E 013°57'713.9
2017-Aug-24 10:00N 36°38' E 013°49'713.9
2017-Aug-24 09:30N 36°40' E 013°41'714.0
2017-Aug-24 08:59N 36°42' E 013°32'714.0
2017-Aug-24 08:30N 36°44' E 013°24'714.1
2017-Aug-24 08:01N 36°46' E 013°16'714.1
2017-Aug-24 07:29N 36°49' E 013°07'714.0
2017-Aug-24 07:00N 36°51' E 012°59'714.1
2017-Aug-24 06:30N 36°53' E 012°51'913.9
2017-Aug-24 05:51N 36°57' E 012°40'513.6
2017-Aug-24 05:30N 36°58' E 012°35'11013.3
2017-Aug-23 21:17N 37°33' E 010°24'2213.4
2017-Aug-23 19:38N 37°33' E 009°56'214.0
2017-Aug-23 19:29N 37°32' E 009°54'714.1
2017-Aug-23 19:00N 37°30' E 009°45'714.2
2017-Aug-23 18:29N 37°29' E 009°36'713.8
2017-Aug-23 17:59N 37°27' E 009°28'713.8
2017-Aug-23 17:31N 37°25' E 009°20'713.6
2017-Aug-23 17:00N 37°23' E 009°12'713.4
2017-Aug-23 16:30N 37°22' E 009°03'713.2
2017-Aug-23 16:00N 37°20' E 008°56'713.1
2017-Aug-23 15:30N 37°20' E 008°47'613.0
2017-Aug-23 15:01N 37°19' E 008°39'1312.9
2017-Aug-23 14:01N 37°19' E 008°23'612.5
2017-Aug-23 13:30N 37°18' E 008°15'612.7
2017-Aug-23 13:00N 37°18' E 008°07'612.8
2017-Aug-23 12:31N 37°18' E 007°59'713.0
2017-Aug-23 12:01N 37°17' E 007°51'713.2
2017-Aug-23 11:30N 37°17' E 007°43'613.2
2017-Aug-23 11:00N 37°17' E 007°34'3013.9
2017-Aug-23 08:49N 37°17' E 006°56'514.4
2017-Aug-23 08:29N 37°17' E 006°50'714.4
2017-Aug-23 08:00N 37°17' E 006°42'814.4
2017-Aug-23 07:29N 37°17' E 006°32'714.3
2017-Aug-23 07:00N 37°17' E 006°24'713.8
2017-Aug-23 06:30N 37°17' E 006°15'713.5
2017-Aug-23 06:01N 37°16' E 006°06'1513.7
2017-Aug-23 04:53N 37°15' E 005°47'813.9
2017-Aug-23 04:20N 37°15' E 005°38'2713.7
2017-Aug-23 02:22N 37°12' E 005°04'513.8
2017-Aug-23 02:00N 37°11' E 004°58'713.8
2017-Aug-23 01:30N 37°11' E 004°49'713.7
2017-Aug-23 00:59N 37°10' E 004°40'713.9
2017-Aug-23 00:30N 37°09' E 004°32'713.4
2017-Aug-23 00:00N 37°08' E 004°24'713.5
2017-Aug-22 23:30N 37°07' E 004°15'713.6
2017-Aug-22 23:00N 37°06' E 004°07'713.6
2017-Aug-22 22:30N 37°05' E 003°58'713.0
2017-Aug-22 21:59N 37°04' E 003°50'613.4
2017-Aug-22 21:30N 37°03' E 003°42'713.7
2017-Aug-22 21:00N 37°01' E 003°34'713.5
2017-Aug-22 20:29N 37°00' E 003°25'713.4
2017-Aug-22 19:59N 36°59' E 003°17'613.4
2017-Aug-22 19:30N 36°58' E 003°09'813.4
2017-Aug-22 18:56N 36°57' E 002°60'613.4
2017-Aug-22 18:30N 36°56' E 002°52'813.5
2017-Aug-22 17:55N 36°55' E 002°42'613.4
2017-Aug-22 17:30N 36°54' E 002°36'713.2
2017-Aug-22 17:00N 36°53' E 002°27'713.1
2017-Aug-22 16:30N 36°52' E 002°19'713.0
2017-Aug-22 16:00N 36°51' E 002°11'612.8
2017-Aug-22 15:30N 36°50' E 002°04'712.4
2017-Aug-22 14:54N 36°48' E 001°54'512.5
2017-Aug-22 14:30N 36°47' E 001°48'712.9
2017-Aug-22 14:00N 36°46' E 001°40'913.4
2017-Aug-22 13:20N 36°44' E 001°29'713.6
2017-Aug-22 12:48N 36°43' E 001°20'413.6
2017-Aug-22 12:30N 36°42' E 001°16'813.4
2017-Aug-22 11:55N 36°42' E 001°06'5213.3
2017-Aug-22 08:00N 36°32' E 000°02'1412.9
2017-Aug-22 06:55N 36°29' W 000°15'512.6
2017-Aug-22 06:30N 36°28' W 000°22'612.6
2017-Aug-22 06:00N 36°27' W 000°29'612.7
2017-Aug-22 05:30N 36°26' W 000°37'712.9
2017-Aug-22 05:00N 36°26' W 000°45'713.1
2017-Aug-22 04:29N 36°25' W 000°53'812.9
2017-Aug-22 03:51N 36°23' W 001°03'412.8
2017-Aug-22 03:30N 36°22' W 001°09'712.9
2017-Aug-22 03:00N 36°20' W 001°17'613.0
2017-Aug-22 02:30N 36°19' W 001°24'1513.5
2017-Aug-22 01:24N 36°17' W 001°43'2113.7
2017-Aug-21 23:54N 36°15' W 002°08'614.0
2017-Aug-21 23:30N 36°14' W 002°15'714.3
2017-Aug-21 23:00N 36°13' W 002°24'13614.1
2017-Aug-21 13:22N 36°04' W 005°11'613.4
2017-Aug-21 12:56N 36°04' W 005°18'4 9.6
2017-Aug-21 12:30N 36°07' W 005°23'2 0.3
2017-Aug-21 05:02N 36°09' W 005°23'0 0.1
2017-Aug-21 04:41N 36°09' W 005°23'0 0.1
2017-Aug-21 04:30N 36°09' W 005°23'0 0.1
2017-Aug-21 03:58N 36°09' W 005°23'1 2.4
2017-Aug-21 03:30N 36°08' W 005°22'2 4.4
2017-Aug-21 03:01N 36°06' W 005°21'2 4.8
2017-Aug-21 02:31N 36°03' W 005°21'1 2.8
2017-Aug-21 02:01N 36°02' W 005°21'3 6.8
2017-Aug-21 01:30N 35°60' W 005°24'510.2
2017-Aug-21 01:01N 35°57' W 005°30'611.5
2017-Aug-21 00:29N 35°56' W 005°37'510.8
2017-Aug-21 00:00N 35°54' W 005°43'5 9.9
2017-Aug-20 23:27N 35°52' W 005°50'611.0
2017-Aug-20 22:55N 35°51' W 005°57'6412.8
2017-Aug-20 17:55N 35°12' W 006°59'7613.4
2017-Aug-20 12:14N 34°17' W 008°03'313.3
2017-Aug-20 12:00N 34°15' W 008°06'1212.8
2017-Aug-20 11:04N 34°07' W 008°16'3312.5
2017-Aug-20 08:28N 33°43' W 008°43'1612.7
2017-Aug-20 07:11N 33°32' W 008°58'9813.0
2017-Aug-19 23:40N 32°19' W 010°15'312.8
2017-Aug-19 23:27N 32°17' W 010°17'612.8
2017-Aug-19 23:00N 32°12' W 010°21'612.6
2017-Aug-19 22:30N 32°07' W 010°25'612.3
2017-Aug-19 22:00N 32°02' W 010°29'712.0
2017-Aug-19 21:27N 31°56' W 010°33'512.2
2017-Aug-19 21:00N 31°52' W 010°37'612.1
2017-Aug-19 20:29N 31°46' W 010°41'611.7
2017-Aug-19 20:00N 31°42' W 010°44'611.7
2017-Aug-19 19:31N 31°37' W 010°48'911.7
2017-Aug-19 18:45N 31°29' W 010°54'311.5
2017-Aug-19 18:31N 31°27' W 010°55'811.4
2017-Aug-19 17:49N 31°20' W 010°60'411.4
2017-Aug-19 17:30N 31°17' W 011°02'1011.6
2017-Aug-19 16:39N 31°09' W 011°08'1011.9
2017-Aug-19 15:49N 31°01' W 011°15'412.1
2017-Aug-19 15:28N 30°57' W 011°18'612.1
2017-Aug-19 14:57N 30°52' W 011°22'1212.4
2017-Aug-19 14:00N 30°43' W 011°30'612.7
2017-Aug-19 13:31N 30°38' W 011°35'612.6
2017-Aug-19 13:00N 30°33' W 011°39'5612.4
2017-Aug-19 08:27N 29°46' W 012°15'611.8
2017-Aug-19 07:57N 29°41' W 012°19'811.7
2017-Aug-19 07:18N 29°35' W 012°24'511.5
2017-Aug-19 06:51N 29°30' W 012°27'411.4
2017-Aug-19 06:30N 29°27' W 012°30'611.6
2017-Aug-19 06:01N 29°23' W 012°34'611.6
2017-Aug-19 05:30N 29°18' W 012°38'611.8
2017-Aug-19 05:00N 29°12' W 012°41'612.0
2017-Aug-19 04:30N 29°07' W 012°45'611.9
2017-Aug-19 04:00N 29°02' W 012°48'611.9
2017-Aug-19 03:30N 28°57' W 012°52'612.0
2017-Aug-19 03:00N 28°53' W 012°56'1112.1
2017-Aug-19 02:07N 28°44' W 013°03'112.3
2017-Aug-19 02:00N 28°43' W 013°04'612.4
2017-Aug-19 01:29N 28°37' W 013°08'612.3
2017-Aug-19 01:00N 28°32' W 013°11'812.3
2017-Aug-19 00:21N 28°25' W 013°17'412.4
2017-Aug-19 00:00N 28°22' W 013°19'1612.3
2017-Aug-18 22:44N 28°09' W 013°30'412.4
2017-Aug-18 22:23N 28°06' W 013°32'512.5
2017-Aug-18 22:00N 28°02' W 013°35'612.6
2017-Aug-18 21:29N 27°56' W 013°39'612.5
2017-Aug-18 21:00N 27°51' W 013°42'612.3
2017-Aug-18 20:30N 27°46' W 013°46'712.2
2017-Aug-18 19:55N 27°40' W 013°52'2412.2
2017-Aug-18 17:58N 27°21' W 014°07'612.2
2017-Aug-18 17:29N 27°16' W 014°11'1912.6
2017-Aug-18 15:57N 27°00' W 014°24'612.8
2017-Aug-18 15:30N 26°56' W 014°28'612.8
2017-Aug-18 15:00N 26°51' W 014°32'2712.6
2017-Aug-18 12:51N 26°29' W 014°51'4312.3
2017-Aug-18 09:22N 25°54' W 015°18'3512.3
2017-Aug-18 06:33N 25°26' W 015°40'212.0
2017-Aug-18 06:25N 25°25' W 015°42'37512.7
2017-Aug-17 00:54N 19°32' W 017°60'  
Track history (hours):
 
Tides and Currents Weather Stations Pressure Air Temp Water Temp Dewpoint Dewpoint Depression Visibility Wind Speed Wind Dir Waves Ship Positions

Star Epsilon

Last reported at 2017-Aug-24 10:30 UTC. Time now 2017-Aug-24 10:35 UTC.
Position N 36°37' E 013°57'.

Length 189 m; draft 10.8 m.

Type: Ship. MMSI: 538003043.

Date/timePositionNaut miles runAvg speedWind from/ knotsBaromVisibWave heightAir tempDewpointWater temp
2017-Aug-24 10:30N 36°37' E 013°57'713.9
2017-Aug-24 10:00N 36°38' E 013°49'713.9
2017-Aug-24 09:30N 36°40' E 013°41'714.0
2017-Aug-24 08:59N 36°42' E 013°32'714.0
2017-Aug-24 08:30N 36°44' E 013°24'714.1
2017-Aug-24 08:01N 36°46' E 013°16'714.1
2017-Aug-24 07:29N 36°49' E 013°07'714.0
2017-Aug-24 07:00N 36°51' E 012°59'714.1
2017-Aug-24 06:30N 36°53' E 012°51'913.9
2017-Aug-24 05:51N 36°57' E 012°40'513.6
2017-Aug-24 05:30N 36°58' E 012°35'11013.3
2017-Aug-23 21:17N 37°33' E 010°24'2213.4
2017-Aug-23 19:38N 37°33' E 009°56'214.0
2017-Aug-23 19:29N 37°32' E 009°54'714.1
2017-Aug-23 19:00N 37°30' E 009°45'714.2
2017-Aug-23 18:29N 37°29' E 009°36'713.8
2017-Aug-23 17:59N 37°27' E 009°28'713.8
2017-Aug-23 17:31N 37°25' E 009°20'713.6
2017-Aug-23 17:00N 37°23' E 009°12'713.4
2017-Aug-23 16:30N 37°22' E 009°03'713.2
2017-Aug-23 16:00N 37°20' E 008°56'713.1
2017-Aug-23 15:30N 37°20' E 008°47'613.0
2017-Aug-23 15:01N 37°19' E 008°39'1312.9
2017-Aug-23 14:01N 37°19' E 008°23'612.5
2017-Aug-23 13:30N 37°18' E 008°15'612.7
2017-Aug-23 13:00N 37°18' E 008°07'612.8
2017-Aug-23 12:31N 37°18' E 007°59'713.0
2017-Aug-23 12:01N 37°17' E 007°51'713.2
2017-Aug-23 11:30N 37°17' E 007°43'613.2
2017-Aug-23 11:00N 37°17' E 007°34'3013.9
2017-Aug-23 08:49N 37°17' E 006°56'514.4
2017-Aug-23 08:29N 37°17' E 006°50'714.4
2017-Aug-23 08:00N 37°17' E 006°42'814.4
2017-Aug-23 07:29N 37°17' E 006°32'714.3
2017-Aug-23 07:00N 37°17' E 006°24'713.8
2017-Aug-23 06:30N 37°17' E 006°15'713.5
2017-Aug-23 06:01N 37°16' E 006°06'1513.7
2017-Aug-23 04:53N 37°15' E 005°47'813.9
2017-Aug-23 04:20N 37°15' E 005°38'2713.7
2017-Aug-23 02:22N 37°12' E 005°04'513.8
2017-Aug-23 02:00N 37°11' E 004°58'713.8
2017-Aug-23 01:30N 37°11' E 004°49'713.7
2017-Aug-23 00:59N 37°10' E 004°40'713.9
2017-Aug-23 00:30N 37°09' E 004°32'713.4
2017-Aug-23 00:00N 37°08' E 004°24'713.5
2017-Aug-22 23:30N 37°07' E 004°15'713.6
2017-Aug-22 23:00N 37°06' E 004°07'713.6
2017-Aug-22 22:30N 37°05' E 003°58'713.0
2017-Aug-22 21:59N 37°04' E 003°50'613.4
2017-Aug-22 21:30N 37°03' E 003°42'713.7
2017-Aug-22 21:00N 37°01' E 003°34'713.5
2017-Aug-22 20:29N 37°00' E 003°25'713.4
2017-Aug-22 19:59N 36°59' E 003°17'613.4
2017-Aug-22 19:30N 36°58' E 003°09'813.4
2017-Aug-22 18:56N 36°57' E 002°60'613.4
2017-Aug-22 18:30N 36°56' E 002°52'813.5
2017-Aug-22 17:55N 36°55' E 002°42'613.4
2017-Aug-22 17:30N 36°54' E 002°36'713.2
2017-Aug-22 17:00N 36°53' E 002°27'713.1
2017-Aug-22 16:30N 36°52' E 002°19'713.0
2017-Aug-22 16:00N 36°51' E 002°11'612.8
2017-Aug-22 15:30N 36°50' E 002°04'712.4
2017-Aug-22 14:54N 36°48' E 001°54'512.5
2017-Aug-22 14:30N 36°47' E 001°48'712.9
2017-Aug-22 14:00N 36°46' E 001°40'913.4
2017-Aug-22 13:20N 36°44' E 001°29'713.6
2017-Aug-22 12:48N 36°43' E 001°20'413.6
2017-Aug-22 12:30N 36°42' E 001°16'813.4
2017-Aug-22 11:55N 36°42' E 001°06'5213.3
2017-Aug-22 08:00N 36°32' E 000°02'1412.9
2017-Aug-22 06:55N 36°29' W 000°15'512.6
2017-Aug-22 06:30N 36°28' W 000°22'612.6
2017-Aug-22 06:00N 36°27' W 000°29'612.7
2017-Aug-22 05:30N 36°26' W 000°37'712.9
2017-Aug-22 05:00N 36°26' W 000°45'713.1
2017-Aug-22 04:29N 36°25' W 000°53'812.9
2017-Aug-22 03:51N 36°23' W 001°03'412.8
2017-Aug-22 03:30N 36°22' W 001°09'712.9
2017-Aug-22 03:00N 36°20' W 001°17'613.0
2017-Aug-22 02:30N 36°19' W 001°24'1513.5
2017-Aug-22 01:24N 36°17' W 001°43'2113.7
2017-Aug-21 23:54N 36°15' W 002°08'614.0
2017-Aug-21 23:30N 36°14' W 002°15'714.3
2017-Aug-21 23:00N 36°13' W 002°24'13614.1
2017-Aug-21 13:22N 36°04' W 005°11'613.4
2017-Aug-21 12:56N 36°04' W 005°18'4 9.6
2017-Aug-21 12:30N 36°07' W 005°23'2 0.3
2017-Aug-21 05:02N 36°09' W 005°23'0 0.1
2017-Aug-21 04:41N 36°09' W 005°23'0 0.1
2017-Aug-21 04:30N 36°09' W 005°23'0 0.1
2017-Aug-21 03:58N 36°09' W 005°23'1 2.4
2017-Aug-21 03:30N 36°08' W 005°22'2 4.4
2017-Aug-21 03:01N 36°06' W 005°21'2 4.8
2017-Aug-21 02:31N 36°03' W 005°21'1 2.8
2017-Aug-21 02:01N 36°02' W 005°21'3 6.8
2017-Aug-21 01:30N 35°60' W 005°24'510.2
2017-Aug-21 01:01N 35°57' W 005°30'611.5
2017-Aug-21 00:29N 35°56' W 005°37'510.8
2017-Aug-21 00:00N 35°54' W 005°43'5 9.9
2017-Aug-20 23:27N 35°52' W 005°50'611.0
2017-Aug-20 22:55N 35°51' W 005°57'6412.8
2017-Aug-20 17:55N 35°12' W 006°59'7613.4
2017-Aug-20 12:14N 34°17' W 008°03'313.3
2017-Aug-20 12:00N 34°15' W 008°06'1212.8
2017-Aug-20 11:04N 34°07' W 008°16'3312.5
2017-Aug-20 08:28N 33°43' W 008°43'1612.7
2017-Aug-20 07:11N 33°32' W 008°58'9813.0
2017-Aug-19 23:40N 32°19' W 010°15'312.8
2017-Aug-19 23:27N 32°17' W 010°17'612.8
2017-Aug-19 23:00N 32°12' W 010°21'612.6
2017-Aug-19 22:30N 32°07' W 010°25'612.3
2017-Aug-19 22:00N 32°02' W 010°29'712.0
2017-Aug-19 21:27N 31°56' W 010°33'512.2
2017-Aug-19 21:00N 31°52' W 010°37'612.1
2017-Aug-19 20:29N 31°46' W 010°41'611.7
2017-Aug-19 20:00N 31°42' W 010°44'611.7
2017-Aug-19 19:31N 31°37' W 010°48'911.7
2017-Aug-19 18:45N 31°29' W 010°54'311.5
2017-Aug-19 18:31N 31°27' W 010°55'811.4
2017-Aug-19 17:49N 31°20' W 010°60'411.4
2017-Aug-19 17:30N 31°17' W 011°02'1011.6
2017-Aug-19 16:39N 31°09' W 011°08'1011.9
2017-Aug-19 15:49N 31°01' W 011°15'412.1
2017-Aug-19 15:28N 30°57' W 011°18'612.1
2017-Aug-19 14:57N 30°52' W 011°22'1212.4
2017-Aug-19 14:00N 30°43' W 011°30'612.7
2017-Aug-19 13:31N 30°38' W 011°35'612.6
2017-Aug-19 13:00N 30°33' W 011°39'5612.4
2017-Aug-19 08:27N 29°46' W 012°15'611.8
2017-Aug-19 07:57N 29°41' W 012°19'811.7
2017-Aug-19 07:18N 29°35' W 012°24'511.5
2017-Aug-19 06:51N 29°30' W 012°27'411.4
2017-Aug-19 06:30N 29°27' W 012°30'611.6
2017-Aug-19 06:01N 29°23' W 012°34'611.6
2017-Aug-19 05:30N 29°18' W 012°38'611.8
2017-Aug-19 05:00N 29°12' W 012°41'612.0
2017-Aug-19 04:30N 29°07' W 012°45'611.9
2017-Aug-19 04:00N 29°02' W 012°48'611.9
2017-Aug-19 03:30N 28°57' W 012°52'612.0
2017-Aug-19 03:00N 28°53' W 012°56'1112.1
2017-Aug-19 02:07N 28°44' W 013°03'112.3
2017-Aug-19 02:00N 28°43' W 013°04'612.4
2017-Aug-19 01:29N 28°37' W 013°08'612.3
2017-Aug-19 01:00N 28°32' W 013°11'812.3
2017-Aug-19 00:21N 28°25' W 013°17'412.4
2017-Aug-19 00:00N 28°22' W 013°19'1612.3
2017-Aug-18 22:44N 28°09' W 013°30'412.4
2017-Aug-18 22:23N 28°06' W 013°32'512.5
2017-Aug-18 22:00N 28°02' W 013°35'612.6
2017-Aug-18 21:29N 27°56' W 013°39'612.5
2017-Aug-18 21:00N 27°51' W 013°42'612.3
2017-Aug-18 20:30N 27°46' W 013°46'712.2
2017-Aug-18 19:55N 27°40' W 013°52'2412.2
2017-Aug-18 17:58N 27°21' W 014°07'612.2
2017-Aug-18 17:29N 27°16' W 014°11'1912.6
2017-Aug-18 15:57N 27°00' W 014°24'612.8
2017-Aug-18 15:30N 26°56' W 014°28'612.8
2017-Aug-18 15:00N 26°51' W 014°32'2712.6
2017-Aug-18 12:51N 26°29' W 014°51'4312.3
2017-Aug-18 09:22N 25°54' W 015°18'3512.3
2017-Aug-18 06:33N 25°26' W 015°40'212.0
2017-Aug-18 06:25N 25°25' W 015°42'37512.7
2017-Aug-17 00:54N 19°32' W 017°60'  

Dump ship's entire track history